Time;durP1;ratioP1;P1;durP2;ratioP2;P2;SDS_P1;SDS_P2;PMS_P1;PMS_P2;Temp;Humidity;BMP_temperature;BMP_pressure;BME280_temperature;BME280_humidity;BME280_pressure;Samples;Min_cycle;Max_cycle;Signal;HPM_P1;HPM_P2
2022/03/14 00:01:59;;;;;;;17.43;11.87;;;6.20;35.60;;;;;;5021940;28;20180;-80
2022/03/14 00:04:25;;;;;;;18.73;11.07;;;6.20;35.50;;;;;;5003392;28;20765;-78
2022/03/14 00:06:51;;;;;;;17.20;10.87;;;6.10;35.80;;;;;;5008814;28;20211;-81
2022/03/14 00:09:17;;;;;;;18.60;12.20;;;6.20;35.70;;;;;;5008028;28;20200;-70
2022/03/14 00:11:43;;;;;;;17.70;10.57;;;6.10;35.70;;;;;;4998348;28;20613;-75
2022/03/14 00:14:09;;;;;;;18.53;10.57;;;6.10;35.90;;;;;;5003420;28;20229;-76
2022/03/14 00:16:41;;;;;;;18.73;10.73;;;6.00;36.10;;;;;;5011173;28;20278;-69
2022/03/14 00:19:07;;;;;;;21.10;11.80;;;6.10;36.10;;;;;;5006949;28;20224;-68
2022/03/14 00:21:35;;;;;;;16.17;11.37;;;6.00;36.10;;;;;;5009290;28;20184;-68
2022/03/14 00:24:01;;;;;;;16.97;12.10;;;5.90;36.40;;;;;;5009765;28;20196;-68
2022/03/14 00:26:27;;;;;;;13.13;10.33;;;5.90;36.30;;;;;;5005979;28;20316;-67
2022/03/14 00:28:53;;;;;;;15.27;11.23;;;5.80;36.50;;;;;;5006806;28;20598;-67
2022/03/14 00:31:20;;;;;;;17.53;12.10;;;5.90;36.80;;;;;;5007850;28;20187;-70
2022/03/14 00:33:46;;;;;;;19.50;11.60;;;5.80;36.70;;;;;;5014180;28;20208;-68
2022/03/14 00:36:12;;;;;;;19.50;11.60;;;5.80;36.80;;;;;;5014787;28;20183;-67
2022/03/14 00:38:39;;;;;;;17.33;11.50;;;5.80;37.10;;;;;;5008925;28;20238;-68
2022/03/14 00:41:06;;;;;;;17.00;11.50;;;5.80;36.70;;;;;;5013771;28;20223;-67
2022/03/14 00:43:32;;;;;;;21.83;11.43;;;5.70;36.70;;;;;;5009473;28;20200;-68
2022/03/14 00:45:58;;;;;;;13.20;9.40;;;5.70;36.80;;;;;;5016308;28;20215;-68
2022/03/14 00:48:24;;;;;;;20.20;11.83;;;5.70;36.90;;;;;;5008799;28;20200;-70
2022/03/14 00:50:50;;;;;;;17.80;12.10;;;5.70;36.80;;;;;;5015913;28;20208;-68
2022/03/14 00:53:15;;;;;;;19.00;12.40;;;5.80;36.80;;;;;;5015088;28;20616;-67
2022/03/14 00:55:41;;;;;;;20.87;11.03;;;5.60;37.00;;;;;;5020402;28;20207;-68
2022/03/14 00:58:07;;;;;;;16.97;11.73;;;5.60;37.20;;;;;;5007714;28;20196;-68
2022/03/14 01:00:33;;;;;;;22.27;12.53;;;5.60;37.20;;;;;;5021588;28;20654;-67
2022/03/14 01:02:59;;;;;;;15.30;10.50;;;5.50;37.40;;;;;;5024771;28;20565;-66
2022/03/14 01:05:26;;;;;;;19.93;11.73;;;5.40;37.30;;;;;;5006887;28;20405;-67
2022/03/14 01:07:51;;;;;;;19.40;11.93;;;5.70;37.20;;;;;;5015732;28;20230;-67
2022/03/14 01:10:17;;;;;;;18.37;11.53;;;5.60;37.10;;;;;;5009464;28;20734;-69
2022/03/14 01:12:42;;;;;;;20.20;12.60;;;5.50;37.40;;;;;;5007452;28;20254;-69
2022/03/14 01:15:09;;;;;;;18.17;11.37;;;5.50;37.60;;;;;;5010432;28;20573;-77
2022/03/14 01:17:34;;;;;;;17.20;11.37;;;5.50;37.30;;;;;;5009337;28;20200;-76
2022/03/14 01:20:00;;;;;;;21.07;11.97;;;5.50;37.20;;;;;;5015185;28;20239;-74
2022/03/14 01:22:25;;;;;;;16.73;12.00;;;5.40;37.50;;;;;;5016395;28;20294;-72
2022/03/14 01:24:51;;;;;;;17.67;12.30;;;5.30;37.60;;;;;;5005255;28;20212;-71
2022/03/14 01:27:16;;;;;;;16.47;11.00;;;5.20;37.70;;;;;;5006529;28;20223;-69
2022/03/14 01:29:42;;;;;;;17.60;11.63;;;5.20;38.00;;;;;;5007404;28;20204;-71
2022/03/14 01:32:10;;;;;;;21.57;12.47;;;5.20;38.10;;;;;;5012249;28;20322;-73
2022/03/14 01:34:35;;;;;;;19.03;12.10;;;5.20;38.20;;;;;;5005594;28;20234;-68
2022/03/14 01:37:02;;;;;;;21.93;12.07;;;5.20;38.00;;;;;;5008787;28;21037;-69
2022/03/14 01:39:27;;;;;;;21.97;12.20;;;5.20;38.10;;;;;;5014922;28;20737;-69
2022/03/14 01:41:55;;;;;;;20.13;13.10;;;5.10;38.30;;;;;;5012860;28;20211;-71
2022/03/14 01:44:21;;;;;;;22.30;10.87;;;5.00;38.10;;;;;;5013438;28;20196;-82
2022/03/14 01:46:47;;;;;;;21.10;13.03;;;5.10;38.40;;;;;;5007677;28;20200;-72
2022/03/14 01:49:13;;;;;;;20.33;11.93;;;5.10;38.20;;;;;;5005454;28;20286;-72
2022/03/14 01:51:41;;;;;;;21.83;11.37;;;5.10;38.20;;;;;;5018559;28;20274;-72
2022/03/14 01:54:08;;;;;;;18.97;10.87;;;5.20;38.20;;;;;;5016188;28;20628;-72
2022/03/14 01:56:35;;;;;;;18.53;11.30;;;5.30;38.00;;;;;;5014442;28;20271;-71
2022/03/14 01:59:01;;;;;;;20.60;12.10;;;5.30;38.00;;;;;;5018335;28;20208;-74
2022/03/14 02:01:27;;;;;;;21.07;11.70;;;5.20;38.00;;;;;;5012104;28;20188;-72
2022/03/14 02:03:53;;;;;;;18.27;12.37;;;5.10;38.30;;;;;;5013919;28;20217;-76
2022/03/14 02:06:19;;;;;;;21.20;12.40;;;5.10;38.20;;;;;;5026568;28;20175;-73
2022/03/14 02:08:45;;;;;;;17.03;11.50;;;5.00;38.40;;;;;;5006373;28;20233;-69
2022/03/14 02:11:11;;;;;;;22.80;12.07;;;5.00;38.60;;;;;;5016289;28;20690;-69
2022/03/14 02:13:36;;;;;;;22.67;12.40;;;4.90;38.70;;;;;;5004578;28;20574;-68
2022/03/14 02:16:02;;;;;;;19.30;12.33;;;4.90;38.70;;;;;;5006328;28;20200;-68
2022/03/14 02:18:27;;;;;;;19.73;11.07;;;4.80;38.90;;;;;;5004163;28;20686;-68
2022/03/14 02:20:53;;;;;;;15.77;10.83;;;4.70;39.00;;;;;;5007036;28;20706;-68
2022/03/14 02:23:19;;;;;;;17.60;11.97;;;4.80;38.80;;;;;;5013567;28;20218;-67
2022/03/14 02:25:50;;;;;;;18.23;11.33;;;4.80;39.00;;;;;;5009881;28;20631;-67
2022/03/14 02:28:22;;;;;;;18.57;13.50;;;4.80;38.80;;;;;;5009860;28;20682;-67
2022/03/14 02:30:48;;;;;;;21.17;12.07;;;4.80;38.90;;;;;;5014385;28;20196;-66
2022/03/14 02:33:14;;;;;;;18.23;11.20;;;4.70;38.90;;;;;;5004081;28;20254;-66
2022/03/14 02:35:40;;;;;;;19.40;11.60;;;4.80;38.90;;;;;;5021228;28;20192;-65
2022/03/14 02:38:09;;;;;;;18.90;11.27;;;4.80;38.70;;;;;;5022563;28;20199;-66
2022/03/14 02:40:37;;;;;;;21.13;12.93;;;4.80;38.90;;;;;;5015644;28;20247;-66
2022/03/14 02:43:03;;;;;;;13.00;10.37;;;4.70;38.70;;;;;;5004120;28;20285;-66
2022/03/14 02:45:29;;;;;;;19.47;11.77;;;4.70;39.00;;;;;;5006864;28;20635;-65
2022/03/14 02:47:54;;;;;;;20.13;10.97;;;4.70;38.90;;;;;;5009309;28;21378;-66
2022/03/14 02:50:20;;;;;;;21.03;12.80;;;4.70;38.80;;;;;;5017893;28;20222;-66
2022/03/14 02:52:46;;;;;;;17.63;11.17;;;4.60;39.00;;;;;;5011218;28;20274;-66
2022/03/14 02:55:12;;;;;;;18.43;10.87;;;4.60;39.30;;;;;;5014493;28;20187;-66
2022/03/14 02:57:38;;;;;;;18.47;11.07;;;4.60;39.00;;;;;;5003972;28;20203;-66
2022/03/14 03:00:05;;;;;;;19.80;12.00;;;4.60;39.50;;;;;;5011222;28;20207;-66
2022/03/14 03:02:33;;;;;;;22.50;12.33;;;4.50;39.10;;;;;;5015700;28;20195;-66
2022/03/14 03:04:58;;;;;;;17.17;10.83;;;4.60;39.00;;;;;;5018028;28;20196;-66
2022/03/14 03:07:24;;;;;;;20.83;11.77;;;4.70;39.10;;;;;;5005509;28;20677;-66
2022/03/14 03:09:49;;;;;;;18.73;10.97;;;4.60;39.00;;;;;;5013958;28;20208;-69
2022/03/14 03:12:16;;;;;;;17.90;12.57;;;4.60;39.00;;;;;;5005844;28;20192;-70
2022/03/14 03:14:42;;;;;;;20.70;11.07;;;4.60;39.00;;;;;;5017778;28;20216;-69
2022/03/14 03:17:08;;;;;;;17.07;10.37;;;4.50;39.20;;;;;;5005453;28;20389;-69
2022/03/14 03:19:33;;;;;;;20.17;11.37;;;4.50;39.30;;;;;;5013236;28;20585;-68
2022/03/14 03:21:59;;;;;;;18.77;10.87;;;4.40;39.40;;;;;;5005686;28;20266;-69
2022/03/14 03:24:24;;;;;;;17.93;11.90;;;4.40;39.40;;;;;;5013471;28;20195;-68
2022/03/14 03:26:49;;;;;;;17.70;11.30;;;4.30;39.70;;;;;;5004750;28;20231;-69
2022/03/14 03:29:15;;;;;;;19.40;12.23;;;4.30;39.70;;;;;;5013473;28;20208;-69
2022/03/14 03:31:43;;;;;;;18.10;11.73;;;4.30;39.90;;;;;;5006322;28;20231;-69
2022/03/14 03:34:09;;;;;;;20.87;11.03;;;4.40;39.40;;;;;;5015172;28;20187;-70
2022/03/14 03:36:34;;;;;;;16.60;10.70;;;4.30;39.70;;;;;;5019907;28;20685;-69
2022/03/14 03:39:00;;;;;;;17.63;11.03;;;4.40;39.70;;;;;;5021992;28;20203;-69
2022/03/14 03:41:26;;;;;;;19.40;11.50;;;4.30;39.80;;;;;;5018007;28;20199;-69
2022/03/14 03:43:52;;;;;;;20.23;11.47;;;4.20;39.90;;;;;;5015118;28;20199;-69
2022/03/14 03:46:17;;;;;;;18.80;11.60;;;4.20;40.00;;;;;;5021319;28;20203;-68
2022/03/14 03:48:43;;;;;;;19.00;10.67;;;4.30;39.80;;;;;;5009675;28;20214;-68
2022/03/14 03:51:08;;;;;;;17.30;12.33;;;4.20;40.00;;;;;;5011571;28;20535;-69
2022/03/14 03:53:34;;;;;;;16.47;11.70;;;4.30;40.00;;;;;;5013509;28;20212;-69
2022/03/14 03:55:59;;;;;;;19.10;11.60;;;4.20;40.00;;;;;;5005046;28;20195;-67
2022/03/14 03:58:24;;;;;;;21.50;12.53;;;4.10;40.10;;;;;;5019659;28;20242;-67
2022/03/14 04:00:51;;;;;;;21.23;11.37;;;4.10;40.30;;;;;;5008711;28;20391;-66
2022/03/14 04:03:19;;;;;;;21.77;12.13;;;4.10;40.50;;;;;;5003307;28;20733;-67
2022/03/14 04:05:45;;;;;;;18.27;11.70;;;4.00;40.20;;;;;;5011777;28;20662;-66
2022/03/14 04:08:11;;;;;;;21.20;12.63;;;4.10;40.20;;;;;;5016553;28;20214;-66
2022/03/14 04:10:43;;;;;;;21.27;11.10;;;4.10;40.30;;;;;;5009086;28;20199;-66
2022/03/14 04:13:10;;;;;;;22.50;12.07;;;4.10;40.20;;;;;;5018349;28;20235;-69
2022/03/14 04:15:43;;;;;;;17.43;10.53;;;4.20;40.10;;;;;;5019171;28;20206;-72
2022/03/14 04:18:09;;;;;;;16.90;11.17;;;4.10;40.00;;;;;;5016192;28;20231;-71
2022/03/14 04:20:37;;;;;;;16.53;10.43;;;4.10;40.20;;;;;;5018341;28;20212;-69
2022/03/14 04:23:02;;;;;;;19.43;10.57;;;4.10;40.20;;;;;;5015980;28;20219;-66
2022/03/14 04:25:28;;;;;;;20.97;11.67;;;4.10;40.20;;;;;;5008478;28;20220;-67
2022/03/14 04:27:53;;;;;;;17.43;11.23;;;4.00;40.10;;;;;;5009602;28;20585;-75
2022/03/14 04:30:19;;;;;;;18.47;11.00;;;4.00;40.10;;;;;;5020014;28;20210;-69
2022/03/14 04:32:44;;;;;;;18.47;11.83;;;4.10;40.30;;;;;;5016564;28;20318;-76
2022/03/14 04:35:10;;;;;;;19.60;11.50;;;4.10;40.30;;;;;;5010867;28;20515;-71
2022/03/14 04:37:36;;;;;;;17.23;11.43;;;4.10;40.30;;;;;;5006570;28;20223;-71
2022/03/14 04:40:02;;;;;;;14.93;11.07;;;4.10;40.10;;;;;;5024250;28;20250;-72
2022/03/14 04:42:28;;;;;;;20.23;11.80;;;4.10;40.30;;;;;;5011460;28;20211;-73
2022/03/14 04:44:54;;;;;;;20.97;10.93;;;4.00;40.40;;;;;;5023674;28;20730;-73
2022/03/14 04:47:20;;;;;;;15.60;11.43;;;4.00;40.50;;;;;;5001970;28;20200;-73
2022/03/14 04:49:46;;;;;;;19.00;11.60;;;4.00;40.50;;;;;;5016598;28;20195;-73
2022/03/14 04:52:12;;;;;;;19.13;12.03;;;4.00;40.50;;;;;;5005059;28;20216;-72
2022/03/14 04:54:38;;;;;;;19.03;11.37;;;3.90;40.70;;;;;;5019754;28;20192;-72
2022/03/14 04:57:04;;;;;;;18.20;10.67;;;3.90;40.70;;;;;;5005290;28;20658;-73
2022/03/14 04:59:29;;;;;;;18.57;12.23;;;4.00;41.00;;;;;;5020697;28;20264;-71
2022/03/14 05:01:55;;;;;;;17.53;12.33;;;4.00;40.40;;;;;;5020774;28;20298;-69
2022/03/14 05:04:20;;;;;;;19.97;11.23;;;4.10;40.30;;;;;;5015383;28;20187;-68
2022/03/14 05:06:46;;;;;;;20.27;10.40;;;4.00;40.60;;;;;;5016921;28;20188;-68
2022/03/14 05:09:11;;;;;;;18.30;12.03;;;4.00;40.50;;;;;;5007024;28;20215;-68
2022/03/14 05:11:38;;;;;;;19.53;11.50;;;4.20;40.20;;;;;;5006835;28;20196;-68
2022/03/14 05:14:09;;;;;;;20.90;11.57;;;4.00;40.40;;;;;;5014271;28;20200;-68
2022/03/14 05:16:34;;;;;;;16.77;12.23;;;3.90;40.80;;;;;;5013550;28;20566;-68
2022/03/14 05:19:00;;;;;;;18.43;12.23;;;3.90;40.80;;;;;;5009025;28;20196;-69
2022/03/14 05:21:26;;;;;;;17.30;10.23;;;3.80;41.00;;;;;;5017560;28;20176;-69
2022/03/14 05:23:52;;;;;;;17.83;11.13;;;4.00;40.80;;;;;;5018037;28;20207;-68
2022/03/14 05:26:18;;;;;;;19.20;11.67;;;4.00;40.60;;;;;;4962786;28;979562;-68
2022/03/14 05:28:43;;;;;;;21.00;11.60;;;3.90;40.80;;;;;;5015065;28;20204;-68
2022/03/14 05:31:09;;;;;;;23.57;12.43;;;4.00;40.60;;;;;;5009692;28;20617;-68
2022/03/14 05:33:34;;;;;;;22.40;11.27;;;3.90;40.70;;;;;;5019737;28;20202;-68
2022/03/14 05:36:01;;;;;;;19.53;11.47;;;3.90;40.70;;;;;;5007612;28;20678;-69
2022/03/14 05:38:28;;;;;;;17.63;12.30;;;3.90;41.20;;;;;;5011604;28;20323;-69
2022/03/14 05:40:54;;;;;;;21.77;12.30;;;3.80;41.10;;;;;;5007435;28;20299;-69
2022/03/14 05:43:21;;;;;;;23.83;12.90;;;3.80;41.10;;;;;;5015007;28;20303;-69
2022/03/14 05:45:46;;;;;;;20.07;13.63;;;3.80;41.60;;;;;;5007465;28;20192;-69
2022/03/14 05:48:12;;;;;;;19.83;11.37;;;3.70;41.40;;;;;;5014350;28;20653;-69
2022/03/14 05:50:37;;;;;;;17.27;11.53;;;3.70;41.50;;;;;;5007292;28;20219;-69
2022/03/14 05:53:03;;;;;;;18.43;10.60;;;3.80;42.10;;;;;;5006251;28;20340;-69
2022/03/14 05:55:28;;;;;;;19.83;11.40;;;3.70;41.90;;;;;;5000721;28;20701;-68
2022/03/14 05:57:54;;;;;;;20.57;11.80;;;3.70;41.90;;;;;;5007972;28;20204;-68
2022/03/14 06:00:25;;;;;;;21.80;11.83;;;3.70;41.60;;;;;;5015361;28;20269;-69
2022/03/14 06:02:52;;;;;;;18.53;11.60;;;3.70;42.00;;;;;;5017669;28;20217;-69
2022/03/14 06:05:18;;;;;;;18.20;11.40;;;3.80;41.70;;;;;;5006621;28;20219;-69
2022/03/14 06:07:44;;;;;;;19.60;11.93;;;3.90;41.60;;;;;;5013711;28;20211;-70
2022/03/14 06:10:10;;;;;;;18.37;11.57;;;3.80;41.60;;;;;;5021829;28;20662;-71
2022/03/14 06:12:35;;;;;;;20.63;11.03;;;3.90;41.50;;;;;;5023325;28;20290;-70
2022/03/14 06:15:03;;;;;;;24.17;11.83;;;3.90;41.30;;;;;;5026748;28;20267;-69
2022/03/14 06:17:28;;;;;;;16.93;11.23;;;3.90;41.40;;;;;;5017953;28;20199;-68
2022/03/14 06:19:54;;;;;;;21.43;12.30;;;3.90;41.60;;;;;;5011511;28;20216;-68
2022/03/14 06:22:23;;;;;;;19.93;12.50;;;4.00;41.40;;;;;;5009633;28;20622;-69
2022/03/14 06:24:50;;;;;;;22.43;13.00;;;4.00;41.30;;;;;;5017302;28;21050;-70
2022/03/14 06:27:18;;;;;;;18.53;11.20;;;4.00;41.40;;;;;;5015950;28;20278;-70
2022/03/14 06:29:44;;;;;;;21.00;12.53;;;3.90;41.50;;;;;;5018119;28;20191;-69
2022/03/14 06:32:10;;;;;;;21.60;12.57;;;4.00;41.30;;;;;;5023405;28;20576;-71
2022/03/14 06:34:39;;;;;;;25.70;12.80;;;4.00;41.40;;;;;;5012985;28;20202;-74
2022/03/14 06:37:07;;;;;;;23.37;12.80;;;4.00;41.70;;;;;;5009092;28;20196;-71
2022/03/14 06:39:35;;;;;;;19.30;11.67;;;4.10;41.70;;;;;;5016946;28;20216;-71
2022/03/14 06:42:02;;;;;;;18.20;12.77;;;4.20;41.50;;;;;;4998602;28;20223;-71
2022/03/14 06:44:29;;;;;;;16.50;11.83;;;4.20;41.30;;;;;;5014765;28;20175;-72
2022/03/14 06:46:55;;;;;;;20.07;11.37;;;4.20;41.40;;;;;;4997989;28;20224;-69
2022/03/14 06:49:21;;;;;;;19.93;12.07;;;4.30;41.10;;;;;;5000515;28;20179;-68
2022/03/14 06:51:47;;;;;;;20.83;12.63;;;4.30;41.10;;;;;;5005387;28;20319;-73
2022/03/14 06:54:14;;;;;;;22.20;12.10;;;4.40;41.20;;;;;;5013456;28;20180;-73
2022/03/14 06:56:42;;;;;;;20.97;12.60;;;4.50;40.80;;;;;;5017539;28;20249;-66
2022/03/14 06:59:08;;;;;;;23.90;11.60;;;4.50;40.60;;;;;;5016893;28;20243;-67
2022/03/14 07:01:34;;;;;;;20.53;12.83;;;4.50;40.80;;;;;;5011478;28;20199;-67
2022/03/14 07:03:59;;;;;;;23.50;12.90;;;4.60;40.30;;;;;;5009273;28;20732;-65
2022/03/14 07:06:25;;;;;;;19.73;11.80;;;4.70;40.20;;;;;;5007082;28;20188;-67
2022/03/14 07:08:50;;;;;;;19.47;11.30;;;4.80;40.20;;;;;;5018166;28;20310;-66
2022/03/14 07:11:16;;;;;;;16.90;11.93;;;4.80;39.90;;;;;;5002409;28;20191;-66
2022/03/14 07:13:41;;;;;;;18.43;11.30;;;4.90;40.00;;;;;;5011787;28;20216;-66
2022/03/14 07:16:07;;;;;;;17.53;11.37;;;5.00;40.00;;;;;;5005918;28;20645;-67
2022/03/14 07:18:34;;;;;;;18.20;11.07;;;5.10;39.60;;;;;;5009708;28;20262;-67
2022/03/14 07:21:00;;;;;;;19.03;11.53;;;5.30;39.20;;;;;;5019664;28;20218;-66
2022/03/14 07:23:25;;;;;;;15.37;11.80;;;5.20;39.20;;;;;;5004240;28;20204;-66
2022/03/14 07:25:51;;;;;;;18.40;11.20;;;5.30;38.90;;;;;;5016713;28;23261;-67
2022/03/14 07:28:17;;;;;;;18.50;10.53;;;5.30;38.90;;;;;;5003825;28;20223;-68
2022/03/14 07:30:43;;;;;;;21.30;10.80;;;5.30;39.10;;;;;;5016657;28;20257;-66
2022/03/14 07:33:08;;;;;;;17.83;11.77;;;5.30;39.00;;;;;;5007499;28;20666;-66
2022/03/14 07:35:35;;;;;;;24.90;12.53;;;5.40;39.00;;;;;;5011833;28;20482;-65
2022/03/14 07:38:01;;;;;;;16.53;10.83;;;5.50;39.10;;;;;;5005044;28;20250;-64
2022/03/14 07:40:27;;;;;;;22.60;12.17;;;5.50;39.00;;;;;;5010712;28;20697;-65
2022/03/14 07:42:54;;;;;;;18.10;11.93;;;5.50;38.90;;;;;;5006678;28;20742;-65
2022/03/14 07:45:21;;;;;;;16.00;10.47;;;5.60;38.80;;;;;;5012740;28;20232;-66
2022/03/14 07:47:48;;;;;;;19.07;12.53;;;5.70;38.50;;;;;;5014811;28;20203;-66
2022/03/14 07:50:15;;;;;;;18.63;10.87;;;5.80;38.60;;;;;;5017518;28;20204;-66
2022/03/14 07:52:42;;;;;;;23.80;12.67;;;5.80;38.70;;;;;;5010894;28;20210;-65
2022/03/14 07:55:09;;;;;;;16.83;11.63;;;5.90;38.50;;;;;;5021504;28;20715;-66
2022/03/14 07:57:35;;;;;;;17.67;10.30;;;6.00;38.00;;;;;;5009896;28;20223;-66
2022/03/14 08:00:01;;;;;;;22.30;11.23;;;6.00;37.90;;;;;;5016444;28;20647;-67
2022/03/14 08:02:27;;;;;;;19.30;12.03;;;6.10;38.50;;;;;;5009313;28;20207;-66
2022/03/14 08:04:52;;;;;;;17.40;11.03;;;6.20;38.40;;;;;;5017079;28;20612;-66
2022/03/14 08:07:20;;;;;;;17.77;10.57;;;6.30;37.90;;;;;;5002897;28;20184;-66
2022/03/14 08:09:47;;;;;;;18.27;10.90;;;6.20;37.70;;;;;;4997789;28;20700;-66
2022/03/14 08:12:12;;;;;;;22.50;10.93;;;6.40;37.90;;;;;;5018024;28;20287;-66
2022/03/14 08:14:38;;;;;;;18.03;10.37;;;6.40;38.00;;;;;;5014617;28;20275;-66
2022/03/14 08:17:04;;;;;;;21.23;11.23;;;6.50;37.30;;;;;;5002855;28;20659;-66
2022/03/14 08:19:29;;;;;;;18.83;10.03;;;6.60;37.70;;;;;;5012099;28;20207;-67
2022/03/14 08:21:57;;;;;;;16.77;11.00;;;6.60;37.30;;;;;;5015995;28;20255;-66
2022/03/14 08:24:23;;;;;;;17.80;10.63;;;6.50;37.30;;;;;;5016534;28;20187;-67
2022/03/14 08:26:49;;;;;;;16.37;10.10;;;6.70;37.20;;;;;;5009243;28;20261;-67
2022/03/14 08:29:15;;;;;;;20.30;11.23;;;6.70;37.30;;;;;;5024835;28;20183;-65
2022/03/14 08:31:41;;;;;;;14.47;9.90;;;6.70;36.90;;;;;;5022162;28;20345;-66
2022/03/14 08:34:07;;;;;;;16.87;10.97;;;6.70;37.30;;;;;;5013411;28;20205;-67
2022/03/14 08:36:35;;;;;;;16.17;10.27;;;6.80;37.60;;;;;;5018878;28;20188;-66
2022/03/14 08:39:02;;;;;;;15.40;9.80;;;6.80;37.60;;;;;;5012310;28;20207;-67
2022/03/14 08:41:29;;;;;;;17.97;10.77;;;6.90;37.40;;;;;;4999982;28;20215;-65
2022/03/14 08:43:54;;;;;;;16.17;10.47;;;7.00;37.20;;;;;;5018490;28;20222;-66
2022/03/14 08:46:20;;;;;;;14.30;9.70;;;7.00;37.00;;;;;;5008510;28;20204;-66
2022/03/14 08:48:46;;;;;;;14.90;9.03;;;7.00;37.30;;;;;;5023170;28;20211;-65
2022/03/14 08:51:11;;;;;;;17.27;10.33;;;7.20;36.50;;;;;;5025085;28;20208;-67
2022/03/14 08:53:37;;;;;;;13.63;9.93;;;7.20;36.50;;;;;;5012711;28;20231;-66
2022/03/14 08:56:03;;;;;;;12.23;9.23;;;7.30;36.90;;;;;;5018280;28;20629;-65
2022/03/14 08:58:29;;;;;;;12.67;9.33;;;7.40;36.50;;;;;;5016084;28;20214;-65
2022/03/14 09:00:55;;;;;;;15.93;9.30;;;7.40;36.10;;;;;;5007909;28;20247;-66
2022/03/14 09:03:21;;;;;;;16.50;9.67;;;7.50;36.60;;;;;;5019304;28;20600;-68
2022/03/14 09:05:46;;;;;;;15.47;10.30;;;7.70;36.30;;;;;;5000820;28;20202;-68
2022/03/14 09:08:12;;;;;;;14.00;8.57;;;7.80;35.70;;;;;;5015296;28;20640;-72
2022/03/14 09:10:37;;;;;;;14.77;8.27;;;8.00;35.40;;;;;;5008174;28;20600;-68
2022/03/14 09:13:04;;;;;;;21.40;9.07;;;8.00;35.10;;;;;;5010966;28;20204;-68
2022/03/14 09:15:30;;;;;;;12.27;9.57;;;7.90;35.10;;;;;;5007596;28;20200;-67
2022/03/14 09:17:59;;;;;;;10.27;8.13;;;8.00;35.10;;;;;;4999594;28;20197;-66
2022/03/14 09:20:26;;;;;;;12.83;8.97;;;8.10;35.20;;;;;;5007264;28;20209;-65
2022/03/14 09:22:52;;;;;;;15.53;9.70;;;8.20;35.20;;;;;;5007225;28;20205;-66
2022/03/14 09:25:19;;;;;;;13.70;8.90;;;8.10;35.00;;;;;;5007569;28;20228;-66
2022/03/14 09:27:46;;;;;;;13.50;9.80;;;8.20;35.00;;;;;;5013853;28;20587;-68
2022/03/14 09:30:13;;;;;;;12.77;9.43;;;8.20;34.90;;;;;;5023977;28;20201;-66
2022/03/14 09:32:39;;;;;;;12.20;9.10;;;8.30;35.00;;;;;;5006580;28;20483;-67
2022/03/14 09:35:07;;;;;;;14.10;8.70;;;8.30;35.00;;;;;;5013553;28;20250;-65
2022/03/14 09:37:35;;;;;;;11.77;7.77;;;8.40;34.50;;;;;;5018459;28;20570;-67
2022/03/14 09:40:03;;;;;;;12.50;8.07;;;8.60;34.80;;;;;;5016871;28;20444;-68
2022/03/14 09:42:29;;;;;;;13.40;8.37;;;8.70;34.70;;;;;;5012695;28;20672;-66
2022/03/14 09:44:57;;;;;;;19.03;9.63;;;8.70;35.50;;;;;;5007844;28;20279;-67
2022/03/14 09:47:23;;;;;;;12.57;8.73;;;8.70;34.50;;;;;;5013371;28;20666;-67
2022/03/14 09:49:54;;;;;;;11.67;8.43;;;8.70;34.60;;;;;;5018108;28;20187;-68
2022/03/14 09:52:21;;;;;;;11.40;8.27;;;8.90;34.70;;;;;;4995259;28;20216;-68
2022/03/14 09:54:49;;;;;;;17.30;9.33;;;8.90;34.40;;;;;;5017883;28;20275;-67
2022/03/14 09:57:15;;;;;;;12.97;8.10;;;9.00;33.90;;;;;;5016356;28;20681;-67
2022/03/14 09:59:42;;;;;;;12.10;8.47;;;9.20;33.90;;;;;;5015870;28;20266;-67
2022/03/14 10:02:12;;;;;;;13.13;9.40;;;9.30;34.40;;;;;;5020430;28;20342;-66
2022/03/14 10:04:38;;;;;;;11.13;7.97;;;9.50;33.80;;;;;;5016815;28;20758;-66
2022/03/14 10:07:05;;;;;;;11.40;8.00;;;9.60;33.60;;;;;;5005909;28;20659;-66
2022/03/14 10:09:30;;;;;;;10.50;8.33;;;9.70;33.70;;;;;;5013355;28;20193;-67
2022/03/14 10:11:56;;;;;;;11.10;8.47;;;9.70;33.60;;;;;;5006863;28;20193;-66
2022/03/14 10:14:23;;;;;;;12.90;8.40;;;9.60;33.70;;;;;;5015235;28;20276;-65
2022/03/14 10:16:54;;;;;;;13.93;8.53;;;9.70;33.60;;;;;;5013073;28;20811;-67
2022/03/14 10:19:22;;;;;;;10.70;8.10;;;9.90;33.50;;;;;;5017905;28;20283;-67
2022/03/14 10:21:50;;;;;;;10.60;8.03;;;9.90;33.40;;;;;;5013989;28;20261;-68
2022/03/14 10:24:21;;;;;;;9.57;7.97;;;9.90;33.10;;;;;;5014396;28;20189;-68
2022/03/14 10:26:47;;;;;;;16.37;8.47;;;10.00;33.40;;;;;;4997883;28;20260;-66
2022/03/14 10:29:15;;;;;;;11.60;8.67;;;10.10;32.60;;;;;;5013345;28;20185;-64
2022/03/14 10:31:52;;;;;;;9.53;8.10;;;10.30;33.10;;;;;;5017865;28;20225;-68
2022/03/14 10:34:18;;;;;;;12.20;9.33;;;10.20;32.50;;;;;;4986694;28;20688;-66
2022/03/14 10:36:46;;;;;;;10.50;8.50;;;10.30;32.50;;;;;;5010559;28;20226;-72
2022/03/14 10:39:15;;;;;;;19.47;13.20;;;10.30;32.70;;;;;;5001204;28;20253;-70
2022/03/14 10:41:44;;;;;;;14.27;9.77;;;10.30;32.80;;;;;;5010119;28;20198;-70
2022/03/14 10:44:10;;;;;;;10.20;7.80;;;10.40;32.60;;;;;;5015917;28;20213;-69
2022/03/14 10:46:41;;;;;;;10.97;7.67;;;10.40;32.90;;;;;;5006818;28;20677;-66
2022/03/14 10:49:10;;;;;;;11.43;8.40;;;10.70;33.60;;;;;;5009916;28;20284;-68
2022/03/14 10:51:52;;;;;;;13.20;8.53;;;11.00;33.00;;;;;;5002394;28;20673;-71
2022/03/14 10:54:17;;;;;;;10.23;8.67;;;11.30;33.20;;;;;;5010127;28;20259;-67
2022/03/14 10:57:09;;;;;;;11.37;9.17;;;11.30;32.60;;;;;;5006904;28;20198;-71
2022/03/14 10:59:47;;;;;;;10.40;8.10;;;11.70;33.40;;;;;;5013958;28;21051;-67
2022/03/14 11:02:15;;;;;;;10.37;8.30;;;11.80;32.70;;;;;;5022691;28;20658;-69
2022/03/14 11:04:46;;;;;;;11.20;8.27;;;12.00;32.50;;;;;;5014990;28;20184;-66
2022/03/14 11:07:13;;;;;;;10.63;8.30;;;12.20;31.90;;;;;;5007310;28;20665;-66
2022/03/14 11:09:47;;;;;;;11.17;9.83;;;12.40;32.70;;;;;;5018754;28;20203;-67
2022/03/14 11:12:15;;;;;;;10.07;8.47;;;12.60;32.40;;;;;;5011859;28;20231;-70
2022/03/14 11:14:42;;;;;;;12.87;8.73;;;12.80;31.60;;;;;;5009663;28;20199;-67
2022/03/14 11:17:26;;;;;;;10.77;8.20;;;12.90;31.10;;;;;;5009767;28;20312;-69
2022/03/14 11:19:53;;;;;;;10.63;7.90;;;13.20;31.10;;;;;;5006330;28;20223;-69
2022/03/14 11:22:20;;;;;;;13.03;7.80;;;13.40;30.90;;;;;;5001004;28;20195;-67
2022/03/14 11:24:48;;;;;;;11.47;8.13;;;13.70;31.20;;;;;;5009401;28;20641;-69
2022/03/14 11:27:18;;;;;;;11.17;7.60;;;13.70;30.10;;;;;;5010038;28;20227;-76
2022/03/14 11:29:46;;;;;;;13.17;8.73;;;13.80;30.30;;;;;;5001070;28;20294;-75
2022/03/14 11:32:12;;;;;;;8.80;7.90;;;13.60;29.90;;;;;;5011317;28;20362;-74
2022/03/14 11:34:38;;;;;;;9.63;7.90;;;13.30;30.20;;;;;;5005141;28;20258;-74
2022/03/14 11:37:04;;;;;;;10.33;7.30;;;13.30;30.30;;;;;;4994291;28;20201;-72
2022/03/14 11:39:31;;;;;;;8.70;7.20;;;13.30;31.60;;;;;;5005281;28;20216;-77
2022/03/14 11:41:59;;;;;;;9.37;8.37;;;13.50;30.60;;;;;;5007909;28;20207;-70
2022/03/14 11:44:26;;;;;;;11.07;7.73;;;13.60;30.60;;;;;;4996258;28;20455;-72
2022/03/14 11:46:53;;;;;;;9.37;8.47;;;14.10;31.10;;;;;;5006317;28;20984;-69
2022/03/14 11:49:19;;;;;;;11.60;8.00;;;14.50;30.00;;;;;;5002986;28;20200;-70
2022/03/14 11:51:47;;;;;;;10.30;8.83;;;15.10;30.80;;;;;;5012492;28;20744;-70
2022/03/14 11:54:14;;;;;;;11.07;8.53;;;15.50;29.40;;;;;;5004375;28;20416;-70
2022/03/14 11:56:56;;;;;;;9.43;7.83;;;15.50;29.40;;;;;;5020866;28;20814;-70
2022/03/14 11:59:26;;;;;;;11.17;8.43;;;15.60;29.10;;;;;;5012206;28;20357;-71
2022/03/14 12:01:55;;;;;;;14.27;7.80;;;16.00;29.20;;;;;;5005347;28;20204;-71
2022/03/14 12:04:28;;;;;;;11.40;9.20;;;16.10;29.40;;;;;;4999825;28;20204;-71
2022/03/14 12:06:55;;;;;;;10.67;9.03;;;16.20;29.20;;;;;;5016356;28;20193;-71
2022/03/14 12:09:24;;;;;;;11.53;8.73;;;15.70;29.00;;;;;;4998567;28;20202;-71
2022/03/14 12:11:50;;;;;;;12.27;9.67;;;15.40;29.30;;;;;;4998077;28;20192;-70
2022/03/14 12:14:38;;;;;;;10.87;8.77;;;14.90;29.60;;;;;;5009873;28;20298;-70
2022/03/14 12:17:23;;;;;;;9.53;8.57;;;14.50;29.70;;;;;;5005069;28;20199;-72
2022/03/14 12:19:49;;;;;;;10.20;8.77;;;14.60;30.10;;;;;;5005317;28;20495;-72
2022/03/14 12:22:27;;;;;;;12.53;8.33;;;14.60;30.10;;;;;;5004648;28;20192;-69
2022/03/14 12:24:53;;;;;;;12.23;9.27;;;14.70;30.60;;;;;;5014670;28;20216;-69
2022/03/14 12:27:35;;;;;;;11.97;8.47;;;14.30;30.20;;;;;;5009295;28;20957;-69
2022/03/14 12:30:06;;;;;;;9.23;8.33;;;13.90;30.60;;;;;;4994088;28;20223;-70
2022/03/14 12:32:40;;;;;;;11.00;8.97;;;13.90;31.00;;;;;;5016881;28;20200;-70
2022/03/14 12:35:08;;;;;;;16.20;10.03;;;14.00;31.30;;;;;;4988404;28;20614;-71
2022/03/14 12:37:38;;;;;;;10.97;9.37;;;13.90;31.00;;;;;;5002371;28;20232;-73